Time;durP1;ratioP1;P1;durP2;ratioP2;P2;SDS_P1;SDS_P2;PMS_P1;PMS_P2;Temp;Humidity;BMP_temperature;BMP_pressure;BME280_temperature;BME280_humidity;BME280_pressure;Samples;Min_cycle;Max_cycle;Signal;HPM_P1;HPM_P2
2022/01/31 00:01:04;;;;;;;8.57;2.38;;;;;;;;;;6212049;23;20350;-77
2022/01/31 00:03:34;;;;;;;6.28;2.50;;;;;;;;;;6213234;23;20051;-77
2022/01/31 00:06:00;;;;;;;6.47;1.98;;;;;;;;;;6211726;23;20047;-77
2022/01/31 00:08:27;;;;;;;6.72;2.50;;;;;;;;;;6212405;23;20021;-77
2022/01/31 00:10:54;;;;;;;8.27;2.20;;;;;;;;;;6211586;23;20024;-77
2022/01/31 00:13:24;;;;;;;7.18;2.30;;;;;;;;;;6211593;23;20460;-77
2022/01/31 00:15:55;;;;;;;9.48;2.88;;;;;;;;;;6212167;23;20374;-77
2022/01/31 00:18:22;;;;;;;5.05;2.28;;;;;;;;;;6211376;23;20020;-77
2022/01/31 00:20:49;;;;;;;5.25;2.10;;;;;;;;;;6211789;23;20334;-77
2022/01/31 00:23:16;;;;;;;7.88;2.85;;;;;;;;;;6211550;23;20062;-77
2022/01/31 00:25:43;;;;;;;7.28;1.80;;;;;;;;;;6212110;23;20047;-77
2022/01/31 00:28:09;;;;;;;8.35;2.53;;;;;;;;;;6211979;23;20048;-76
2022/01/31 00:30:36;;;;;;;7.47;2.20;;;;;;;;;;6211518;23;20042;-77
2022/01/31 00:33:02;;;;;;;8.85;2.70;;;;;;;;;;6211568;23;20351;-77
2022/01/31 00:35:29;;;;;;;9.88;2.33;;;;;;;;;;6210631;22;20459;-77
2022/01/31 00:37:57;;;;;;;8.32;2.70;;;;;;;;;;6212163;23;20036;-77
2022/01/31 00:40:23;;;;;;;13.60;2.78;;;;;;;;;;6211913;23;20088;-77
2022/01/31 00:42:50;;;;;;;13.13;2.92;;;;;;;;;;6211832;23;20024;-76
2022/01/31 00:45:20;;;;;;;16.63;3.72;;;;;;;;;;6212204;23;20016;-77
2022/01/31 00:47:49;;;;;;;13.90;3.85;;;;;;;;;;6213301;23;20024;-77
2022/01/31 00:50:18;;;;;;;11.00;3.60;;;;;;;;;;6212823;23;20020;-77
2022/01/31 00:52:46;;;;;;;10.85;3.55;;;;;;;;;;6212473;23;20452;-77
2022/01/31 00:55:14;;;;;;;14.85;4.40;;;;;;;;;;6213027;23;20020;-77
2022/01/31 00:57:41;;;;;;;16.13;4.88;;;;;;;;;;6213475;23;20044;-77
2022/01/31 01:00:09;;;;;;;12.00;4.50;;;;;;;;;;6213059;23;20075;-77
2022/01/31 01:02:35;;;;;;;8.02;3.42;;;;;;;;;;6212992;23;20024;-77
2022/01/31 01:05:02;;;;;;;8.75;2.75;;;;;;;;;;6211779;23;20021;-77
2022/01/31 01:07:28;;;;;;;5.72;2.47;;;;;;;;;;6211767;23;20020;-77
2022/01/31 01:09:55;;;;;;;9.30;3.10;;;;;;;;;;6211021;23;20330;-76
2022/01/31 01:12:23;;;;;;;7.70;3.47;;;;;;;;;;6211635;23;20055;-77
2022/01/31 01:14:50;;;;;;;8.60;2.92;;;;;;;;;;6210570;23;20598;-76
2022/01/31 01:17:16;;;;;;;6.22;3.33;;;;;;;;;;6210777;23;20075;-77
2022/01/31 01:19:44;;;;;;;13.55;4.63;;;;;;;;;;6210343;23;20056;-77
2022/01/31 01:22:11;;;;;;;13.98;5.25;;;;;;;;;;6210973;23;20024;-76
2022/01/31 01:24:37;;;;;;;24.15;9.27;;;;;;;;;;6211477;23;20052;-76
2022/01/31 01:27:04;;;;;;;10.60;4.30;;;;;;;;;;6212366;23;20024;-77
2022/01/31 01:29:32;;;;;;;10.38;3.25;;;;;;;;;;6211462;23;20025;-77
2022/01/31 01:31:59;;;;;;;10.85;3.17;;;;;;;;;;6211689;23;20040;-77
2022/01/31 01:34:26;;;;;;;6.10;2.65;;;;;;;;;;6211901;22;20377;-77
2022/01/31 01:36:53;;;;;;;6.18;2.75;;;;;;;;;;6213690;23;20021;-77
2022/01/31 01:39:20;;;;;;;10.50;3.22;;;;;;;;;;6213709;23;20031;-77
2022/01/31 01:41:47;;;;;;;7.72;3.20;;;;;;;;;;6213679;23;20016;-77
2022/01/31 01:44:13;;;;;;;7.80;2.58;;;;;;;;;;6212403;23;20350;-77
2022/01/31 01:46:41;;;;;;;8.05;2.80;;;;;;;;;;6212930;23;20055;-77
2022/01/31 01:49:07;;;;;;;7.38;2.28;;;;;;;;;;6212803;23;20503;-77
2022/01/31 01:51:34;;;;;;;6.53;2.90;;;;;;;;;;6212806;23;20052;-76
2022/01/31 01:54:01;;;;;;;6.18;2.67;;;;;;;;;;6214045;23;20031;-76
2022/01/31 01:56:28;;;;;;;7.90;2.78;;;;;;;;;;6212632;23;20497;-76
2022/01/31 01:58:56;;;;;;;10.60;3.13;;;;;;;;;;6213351;23;20017;-77
2022/01/31 02:01:23;;;;;;;11.07;2.35;;;;;;;;;;6213359;23;20017;-76
2022/01/31 02:03:51;;;;;;;10.38;3.50;;;;;;;;;;6213931;23;20314;-77
2022/01/31 02:06:17;;;;;;;10.65;3.60;;;;;;;;;;6212673;23;20021;-77
2022/01/31 02:08:44;;;;;;;12.23;3.22;;;;;;;;;;6213699;23;20028;-77
2022/01/31 02:11:12;;;;;;;14.70;2.85;;;;;;;;;;6213567;23;20469;-77
2022/01/31 02:13:39;;;;;;;8.88;2.88;;;;;;;;;;6213553;23;20055;-77
2022/01/31 02:16:07;;;;;;;9.30;4.13;;;;;;;;;;6213308;23;20052;-77
2022/01/31 02:18:36;;;;;;;8.02;3.03;;;;;;;;;;6213779;23;20087;-77
2022/01/31 02:21:07;;;;;;;10.05;3.25;;;;;;;;;;6213113;23;20921;-76
2022/01/31 02:23:34;;;;;;;9.35;2.95;;;;;;;;;;6214779;23;20048;-77
2022/01/31 02:26:03;;;;;;;12.30;3.22;;;;;;;;;;6214404;23;20032;-77
2022/01/31 02:28:32;;;;;;;7.47;2.45;;;;;;;;;;6213821;23;20019;-77
2022/01/31 18:34:41;;;;;;;4.80;2.85;;;;;;;;;;6241602;23;20034;-90
2022/01/31 19:09:27;;;;;;;6.80;3.25;;;;;;;;;;6242344;22;20012;31
2022/01/31 21:23:01;;;;;;;7.97;3.00;;;;;;;;;;5904204;24;20061;-78
2022/01/31 21:32:10;;;;;;;4.65;2.50;;;;;;;;;;5837754;24;20026;-78
2022/01/31 21:39:10;;;;;;;4.95;2.28;;;;;;;;;;5902028;24;20366;-79
2022/01/31 21:48:31;;;;;;;8.00;2.38;;;;;;;;;;5945893;23;20025;-77
2022/01/31 21:51:01;;;;;;;3.83;2.97;;;;;;;;;;5946074;24;20100;-77
2022/01/31 23:00:36;;;;;;;3.55;1.60;;;;;;;;;;5757934;24;20859;-76
2022/01/31 23:03:03;;;;;;;3.70;1.80;;;;;;;;;;5760151;24;20027;-76
2022/01/31 23:05:30;;;;;;;3.60;1.80;;;;;;;;;;5758891;24;20031;-76
2022/01/31 23:07:57;;;;;;;2.90;1.55;;;;;;;;;;5784042;24;20743;-76
2022/01/31 23:10:26;;;;;;;4.05;1.33;;;;;;;;;;5784962;24;20095;-76
2022/01/31 23:12:54;;;;;;;4.75;1.67;;;;;;;;;;5784270;24;20836;-76
2022/01/31 23:15:23;;;;;;;2.78;1.65;;;;;;;;;;5783948;24;20065;-76
2022/01/31 23:17:56;;;;;;;2.92;1.73;;;;;;;;;;5799996;24;20114;-76
2022/01/31 23:20:38;;;;;;;4.57;1.50;;;;;;;;;;5883182;24;20032;-76
2022/01/31 23:42:18;;;;;;;6.25;1.90;;;;;;;;;;6239660;23;20035;-76
2022/01/31 23:44:58;;;;;;;2.33;1.63;;;;;;;;;;6239887;22;20020;-76
2022/01/31 23:55:45;;;;;;;3.05;1.70;;;;;;;;;;6238787;22;20024;-77
